sensor_id;sensor_type;location;lat;lon;timestamp;P1;durP1;ratioP1;P2;durP2;ratioP2
30515;SDS011;17297;54.022;10.760;2024-03-23T00:53:59;9.93;;;2.60;;
30515;SDS011;17297;54.022;10.760;2024-03-23T00:56:24;14.20;;;3.40;;
30515;SDS011;17297;54.022;10.760;2024-03-23T00:58:50;8.55;;;2.90;;
30515;SDS011;17297;54.022;10.760;2024-03-23T01:01:15;10.38;;;2.95;;
30515;SDS011;17297;54.022;10.760;2024-03-23T01:03:40;11.02;;;2.60;;
30515;SDS011;17297;54.022;10.760;2024-03-23T01:06:06;10.30;;;2.70;;
30515;SDS011;17297;54.022;10.760;2024-03-23T01:08:31;12.50;;;4.40;;
30515;SDS011;17297;54.022;10.760;2024-03-23T01:10:57;9.25;;;3.33;;
30515;SDS011;17297;54.022;10.760;2024-03-23T01:13:24;8.52;;;3.30;;
30515;SDS011;17297;54.022;10.760;2024-03-23T01:15:50;8.90;;;2.72;;
30515;SDS011;17297;54.022;10.760;2024-03-23T01:18:17;9.13;;;2.83;;
30515;SDS011;17297;54.022;10.760;2024-03-23T01:20:43;7.90;;;2.83;;
30515;SDS011;17297;54.022;10.760;2024-03-23T01:23:08;6.78;;;3.05;;
30515;SDS011;17297;54.022;10.760;2024-03-23T01:25:33;7.15;;;2.40;;
30515;SDS011;17297;54.022;10.760;2024-03-23T01:27:59;13.82;;;3.00;;
30515;SDS011;17297;54.022;10.760;2024-03-23T01:30:24;8.63;;;2.78;;
30515;SDS011;17297;54.022;10.760;2024-03-23T01:32:49;7.57;;;2.17;;
30515;SDS011;17297;54.022;10.760;2024-03-23T01:35:15;8.65;;;2.75;;
30515;SDS011;17297;54.022;10.760;2024-03-23T01:37:40;8.00;;;2.50;;
30515;SDS011;17297;54.022;10.760;2024-03-23T01:40:05;10.18;;;3.00;;
30515;SDS011;17297;54.022;10.760;2024-03-23T01:42:31;8.65;;;2.72;;
30515;SDS011;17297;54.022;10.760;2024-03-23T01:44:56;11.25;;;2.75;;
30515;SDS011;17297;54.022;10.760;2024-03-23T01:47:22;8.73;;;3.08;;
30515;SDS011;17297;54.022;10.760;2024-03-23T01:49:47;8.73;;;2.53;;
30515;SDS011;17297;54.022;10.760;2024-03-23T01:52:13;6.28;;;2.35;;
30515;SDS011;17297;54.022;10.760;2024-03-23T01:54:39;12.68;;;2.92;;
30515;SDS011;17297;54.022;10.760;2024-03-23T01:57:05;9.20;;;2.45;;
30515;SDS011;17297;54.022;10.760;2024-03-23T01:59:31;10.00;;;2.80;;
30515;SDS011;17297;54.022;10.760;2024-03-23T02:01:57;13.63;;;2.72;;
30515;SDS011;17297;54.022;10.760;2024-03-23T02:04:23;13.10;;;2.75;;
30515;SDS011;17297;54.022;10.760;2024-03-23T02:06:48;12.23;;;2.90;;
30515;SDS011;17297;54.022;10.760;2024-03-23T02:09:14;11.00;;;4.35;;
30515;SDS011;17297;54.022;10.760;2024-03-23T02:11:40;8.15;;;3.30;;
30515;SDS011;17297;54.022;10.760;2024-03-23T02:14:05;6.82;;;2.50;;
30515;SDS011;17297;54.022;10.760;2024-03-23T02:16:31;8.25;;;2.30;;
30515;SDS011;17297;54.022;10.760;2024-03-23T02:18:56;6.18;;;2.13;;
30515;SDS011;17297;54.022;10.760;2024-03-23T02:21:21;9.10;;;3.13;;
30515;SDS011;17297;54.022;10.760;2024-03-23T02:23:47;8.10;;;2.42;;
30515;SDS011;17297;54.022;10.760;2024-03-23T02:26:12;9.38;;;2.50;;
30515;SDS011;17297;54.022;10.760;2024-03-23T02:28:39;12.35;;;3.08;;
30515;SDS011;17297;54.022;10.760;2024-03-23T02:31:05;8.60;;;3.42;;
30515;SDS011;17297;54.022;10.760;2024-03-23T02:33:31;6.70;;;2.00;;
30515;SDS011;17297;54.022;10.760;2024-03-23T02:35:57;6.10;;;2.50;;
30515;SDS011;17297;54.022;10.760;2024-03-23T02:38:22;9.38;;;2.90;;
30515;SDS011;17297;54.022;10.760;2024-03-23T02:40:48;6.68;;;2.67;;
30515;SDS011;17297;54.022;10.760;2024-03-23T02:43:13;9.27;;;3.97;;
30515;SDS011;17297;54.022;10.760;2024-03-23T02:45:38;8.70;;;2.97;;
30515;SDS011;17297;54.022;10.760;2024-03-23T02:48:05;10.57;;;2.45;;
30515;SDS011;17297;54.022;10.760;2024-03-23T02:50:31;10.98;;;2.67;;
30515;SDS011;17297;54.022;10.760;2024-03-23T02:52:57;7.65;;;2.40;;
30515;SDS011;17297;54.022;10.760;2024-03-23T02:55:22;11.05;;;2.95;;
30515;SDS011;17297;54.022;10.760;2024-03-23T02:57:47;11.10;;;2.60;;
30515;SDS011;17297;54.022;10.760;2024-03-23T03:00:13;7.85;;;2.60;;
30515;SDS011;17297;54.022;10.760;2024-03-23T03:02:38;8.10;;;2.60;;
30515;SDS011;17297;54.022;10.760;2024-03-23T03:05:04;7.55;;;2.22;;
30515;SDS011;17297;54.022;10.760;2024-03-23T03:07:30;8.65;;;2.33;;
30515;SDS011;17297;54.022;10.760;2024-03-23T03:09:56;8.68;;;2.60;;
30515;SDS011;17297;54.022;10.760;2024-03-23T03:12:21;9.07;;;2.47;;
30515;SDS011;17297;54.022;10.760;2024-03-23T03:14:47;6.47;;;2.47;;
30515;SDS011;17297;54.022;10.760;2024-03-23T03:17:13;9.57;;;2.63;;
30515;SDS011;17297;54.022;10.760;2024-03-23T03:19:39;9.10;;;2.47;;
30515;SDS011;17297;54.022;10.760;2024-03-23T03:22:05;10.32;;;3.00;;
30515;SDS011;17297;54.022;10.760;2024-03-23T03:24:30;7.68;;;2.72;;
30515;SDS011;17297;54.022;10.760;2024-03-23T03:26:55;8.40;;;2.47;;
30515;SDS011;17297;54.022;10.760;2024-03-23T03:29:22;10.30;;;2.95;;
30515;SDS011;17297;54.022;10.760;2024-03-23T03:31:47;8.48;;;3.28;;
30515;SDS011;17297;54.022;10.760;2024-03-23T03:34:15;8.98;;;2.83;;
30515;SDS011;17297;54.022;10.760;2024-03-23T03:36:40;9.05;;;2.85;;
30515;SDS011;17297;54.022;10.760;2024-03-23T03:39:06;9.55;;;2.33;;
30515;SDS011;17297;54.022;10.760;2024-03-23T03:41:31;10.13;;;3.72;;
30515;SDS011;17297;54.022;10.760;2024-03-23T03:43:57;10.65;;;3.17;;
30515;SDS011;17297;54.022;10.760;2024-03-23T03:46:26;6.65;;;2.38;;
30515;SDS011;17297;54.022;10.760;2024-03-23T03:48:52;11.05;;;2.83;;
30515;SDS011;17297;54.022;10.760;2024-03-23T03:51:19;9.02;;;2.65;;
30515;SDS011;17297;54.022;10.760;2024-03-23T03:53:45;10.18;;;3.00;;
30515;SDS011;17297;54.022;10.760;2024-03-23T03:56:10;14.95;;;3.40;;
30515;SDS011;17297;54.022;10.760;2024-03-23T03:58:35;9.10;;;2.42;;
30515;SDS011;17297;54.022;10.760;2024-03-23T04:01:01;5.53;;;2.30;;
30515;SDS011;17297;54.022;10.760;2024-03-23T04:03:26;10.52;;;3.42;;
30515;SDS011;17297;54.022;10.760;2024-03-23T04:05:54;9.25;;;2.97;;
30515;SDS011;17297;54.022;10.760;2024-03-23T04:08:20;7.15;;;2.42;;
30515;SDS011;17297;54.022;10.760;2024-03-23T04:10:46;7.97;;;2.70;;
30515;SDS011;17297;54.022;10.760;2024-03-23T04:13:12;8.95;;;2.15;;
30515;SDS011;17297;54.022;10.760;2024-03-23T04:15:38;6.10;;;2.38;;
30515;SDS011;17297;54.022;10.760;2024-03-23T04:18:03;7.80;;;2.30;;
30515;SDS011;17297;54.022;10.760;2024-03-23T04:20:28;7.95;;;2.25;;
30515;SDS011;17297;54.022;10.760;2024-03-23T04:22:54;10.32;;;3.20;;
30515;SDS011;17297;54.022;10.760;2024-03-23T04:25:19;6.85;;;2.38;;
30515;SDS011;17297;54.022;10.760;2024-03-23T04:27:45;6.00;;;2.30;;
30515;SDS011;17297;54.022;10.760;2024-03-23T04:30:11;6.78;;;2.25;;
30515;SDS011;17297;54.022;10.760;2024-03-23T04:32:37;7.95;;;2.47;;
30515;SDS011;17297;54.022;10.760;2024-03-23T04:35:02;6.68;;;2.25;;
30515;SDS011;17297;54.022;10.760;2024-03-23T04:37:32;6.13;;;2.05;;
30515;SDS011;17297;54.022;10.760;2024-03-23T04:39:59;10.20;;;3.13;;
30515;SDS011;17297;54.022;10.760;2024-03-23T04:42:25;6.72;;;2.38;;
30515;SDS011;17297;54.022;10.760;2024-03-23T04:44:50;11.77;;;2.78;;
30515;SDS011;17297;54.022;10.760;2024-03-23T04:47:16;5.15;;;2.50;;
30515;SDS011;17297;54.022;10.760;2024-03-23T04:49:41;5.90;;;2.55;;
30515;SDS011;17297;54.022;10.760;2024-03-23T04:52:07;10.60;;;4.05;;
30515;SDS011;17297;54.022;10.760;2024-03-23T04:54:32;5.10;;;2.22;;
30515;SDS011;17297;54.022;10.760;2024-03-23T04:56:58;6.60;;;2.58;;
30515;SDS011;17297;54.022;10.760;2024-03-23T04:59:24;10.38;;;2.85;;
30515;SDS011;17297;54.022;10.760;2024-03-23T05:01:50;10.73;;;2.58;;
30515;SDS011;17297;54.022;10.760;2024-03-23T05:04:15;10.50;;;2.53;;
30515;SDS011;17297;54.022;10.760;2024-03-23T05:06:40;9.57;;;2.42;;
30515;SDS011;17297;54.022;10.760;2024-03-23T05:09:07;7.82;;;2.65;;
30515;SDS011;17297;54.022;10.760;2024-03-23T05:11:33;10.65;;;3.55;;
30515;SDS011;17297;54.022;10.760;2024-03-23T05:13:59;7.82;;;2.20;;
30515;SDS011;17297;54.022;10.760;2024-03-23T05:16:25;6.72;;;2.15;;
30515;SDS011;17297;54.022;10.760;2024-03-23T05:18:51;6.93;;;2.50;;
30515;SDS011;17297;54.022;10.760;2024-03-23T05:21:16;14.95;;;3.58;;
30515;SDS011;17297;54.022;10.760;2024-03-23T05:23:42;8.13;;;3.15;;
30515;SDS011;17297;54.022;10.760;2024-03-23T05:26:08;13.55;;;4.25;;
30515;SDS011;17297;54.022;10.760;2024-03-23T05:28:34;8.10;;;2.70;;
30515;SDS011;17297;54.022;10.760;2024-03-23T05:31:00;14.82;;;2.75;;
30515;SDS011;17297;54.022;10.760;2024-03-23T05:33:25;9.85;;;3.20;;
30515;SDS011;17297;54.022;10.760;2024-03-23T05:36:02;8.38;;;2.55;;
30515;SDS011;17297;54.022;10.760;2024-03-23T05:38:28;5.40;;;2.50;;
30515;SDS011;17297;54.022;10.760;2024-03-23T05:40:56;9.98;;;4.00;;
30515;SDS011;17297;54.022;10.760;2024-03-23T05:43:22;6.15;;;2.55;;
30515;SDS011;17297;54.022;10.760;2024-03-23T05:45:58;8.52;;;2.30;;
30515;SDS011;17297;54.022;10.760;2024-03-23T05:48:27;5.75;;;2.72;;
30515;SDS011;17297;54.022;10.760;2024-03-23T05:50:55;8.25;;;3.05;;
30515;SDS011;17297;54.022;10.760;2024-03-23T05:53:20;8.48;;;2.80;;
30515;SDS011;17297;54.022;10.760;2024-03-23T05:55:46;10.82;;;2.92;;
30515;SDS011;17297;54.022;10.760;2024-03-23T05:58:14;10.30;;;2.85;;
30515;SDS011;17297;54.022;10.760;2024-03-23T06:00:40;12.90;;;3.28;;
30515;SDS011;17297;54.022;10.760;2024-03-23T06:03:05;12.32;;;3.20;;
30515;SDS011;17297;54.022;10.760;2024-03-23T06:05:31;12.30;;;2.97;;
30515;SDS011;17297;54.022;10.760;2024-03-23T06:07:56;7.15;;;2.13;;
30515;SDS011;17297;54.022;10.760;2024-03-23T06:10:22;9.18;;;2.38;;
30515;SDS011;17297;54.022;10.760;2024-03-23T06:12:47;8.15;;;2.63;;
30515;SDS011;17297;54.022;10.760;2024-03-23T06:15:14;6.07;;;2.75;;
30515;SDS011;17297;54.022;10.760;2024-03-23T06:17:39;9.25;;;3.33;;
30515;SDS011;17297;54.022;10.760;2024-03-23T06:20:05;6.63;;;2.42;;
30515;SDS011;17297;54.022;10.760;2024-03-23T06:22:33;7.28;;;2.50;;
30515;SDS011;17297;54.022;10.760;2024-03-23T06:24:59;8.23;;;2.60;;
30515;SDS011;17297;54.022;10.760;2024-03-23T06:27:24;11.60;;;2.90;;
30515;SDS011;17297;54.022;10.760;2024-03-23T06:29:50;13.75;;;3.08;;
30515;SDS011;17297;54.022;10.760;2024-03-23T06:32:15;7.20;;;3.35;;
30515;SDS011;17297;54.022;10.760;2024-03-23T06:34:43;12.57;;;3.75;;
30515;SDS011;17297;54.022;10.760;2024-03-23T06:37:09;7.85;;;2.85;;
30515;SDS011;17297;54.022;10.760;2024-03-23T06:39:38;10.45;;;2.78;;
30515;SDS011;17297;54.022;10.760;2024-03-23T06:42:04;7.47;;;2.80;;
30515;SDS011;17297;54.022;10.760;2024-03-23T06:44:30;8.10;;;2.72;;
30515;SDS011;17297;54.022;10.760;2024-03-23T06:46:56;8.27;;;3.20;;
30515;SDS011;17297;54.022;10.760;2024-03-23T06:49:22;5.40;;;2.78;;
30515;SDS011;17297;54.022;10.760;2024-03-23T06:51:48;5.53;;;2.45;;
30515;SDS011;17297;54.022;10.760;2024-03-23T06:54:13;9.38;;;3.17;;
30515;SDS011;17297;54.022;10.760;2024-03-23T06:56:38;7.47;;;3.28;;
30515;SDS011;17297;54.022;10.760;2024-03-23T06:59:04;7.75;;;3.08;;
30515;SDS011;17297;54.022;10.760;2024-03-23T07:01:29;5.45;;;2.75;;
30515;SDS011;17297;54.022;10.760;2024-03-23T07:03:55;12.32;;;3.08;;
30515;SDS011;17297;54.022;10.760;2024-03-23T07:06:20;7.70;;;2.72;;
30515;SDS011;17297;54.022;10.760;2024-03-23T07:08:46;8.85;;;2.85;;
30515;SDS011;17297;54.022;10.760;2024-03-23T07:11:11;6.70;;;2.33;;
30515;SDS011;17297;54.022;10.760;2024-03-23T07:13:37;6.68;;;2.67;;
30515;SDS011;17297;54.022;10.760;2024-03-23T07:16:02;4.38;;;2.50;;
30515;SDS011;17297;54.022;10.760;2024-03-23T07:18:28;7.88;;;2.95;;
30515;SDS011;17297;54.022;10.760;2024-03-23T07:20:57;8.48;;;3.15;;
30515;SDS011;17297;54.022;10.760;2024-03-23T07:23:23;7.65;;;2.92;;
30515;SDS011;17297;54.022;10.760;2024-03-23T07:25:56;6.75;;;3.20;;
30515;SDS011;17297;54.022;10.760;2024-03-23T07:28:29;5.93;;;2.72;;
30515;SDS011;17297;54.022;10.760;2024-03-23T07:31:01;6.18;;;2.60;;
30515;SDS011;17297;54.022;10.760;2024-03-23T07:33:26;7.28;;;2.78;;
30515;SDS011;17297;54.022;10.760;2024-03-23T07:35:52;7.63;;;2.92;;
30515;SDS011;17297;54.022;10.760;2024-03-23T07:38:18;8.60;;;3.72;;
30515;SDS011;17297;54.022;10.760;2024-03-23T07:40:43;6.97;;;2.92;;
30515;SDS011;17297;54.022;10.760;2024-03-23T07:43:10;8.07;;;3.00;;
30515;SDS011;17297;54.022;10.760;2024-03-23T07:45:35;8.63;;;3.85;;
30515;SDS011;17297;54.022;10.760;2024-03-23T07:48:02;8.05;;;3.00;;
30515;SDS011;17297;54.022;10.760;2024-03-23T07:50:28;7.97;;;2.97;;
30515;SDS011;17297;54.022;10.760;2024-03-23T07:52:53;8.77;;;2.90;;
30515;SDS011;17297;54.022;10.760;2024-03-23T07:55:18;5.20;;;3.20;;
30515;SDS011;17297;54.022;10.760;2024-03-23T07:57:44;5.35;;;2.38;;
30515;SDS011;17297;54.022;10.760;2024-03-23T08:00:09;5.72;;;3.00;;
30515;SDS011;17297;54.022;10.760;2024-03-23T08:02:35;11.50;;;3.50;;
30515;SDS011;17297;54.022;10.760;2024-03-23T08:05:00;5.25;;;2.60;;
30515;SDS011;17297;54.022;10.760;2024-03-23T08:07:26;7.65;;;3.42;;
30515;SDS011;17297;54.022;10.760;2024-03-23T08:09:54;6.47;;;2.95;;
30515;SDS011;17297;54.022;10.760;2024-03-23T08:12:20;7.03;;;3.15;;
30515;SDS011;17297;54.022;10.760;2024-03-23T08:14:45;7.30;;;2.50;;
30515;SDS011;17297;54.022;10.760;2024-03-23T08:17:10;6.88;;;3.35;;
30515;SDS011;17297;54.022;10.760;2024-03-23T08:19:36;5.72;;;2.42;;
30515;SDS011;17297;54.022;10.760;2024-03-23T08:22:01;10.43;;;3.33;;
30515;SDS011;17297;54.022;10.760;2024-03-23T08:24:27;5.70;;;2.88;;
30515;SDS011;17297;54.022;10.760;2024-03-23T08:26:54;8.40;;;2.75;;
30515;SDS011;17297;54.022;10.760;2024-03-23T08:29:19;6.88;;;2.80;;
30515;SDS011;17297;54.022;10.760;2024-03-23T08:31:45;8.15;;;3.72;;
30515;SDS011;17297;54.022;10.760;2024-03-23T08:34:10;7.88;;;3.78;;
30515;SDS011;17297;54.022;10.760;2024-03-23T08:36:35;9.32;;;3.05;;
30515;SDS011;17297;54.022;10.760;2024-03-23T08:39:00;4.85;;;3.10;;
30515;SDS011;17297;54.022;10.760;2024-03-23T08:41:26;5.95;;;2.60;;
30515;SDS011;17297;54.022;10.760;2024-03-23T08:43:51;7.38;;;2.47;;
30515;SDS011;17297;54.022;10.760;2024-03-23T08:46:16;8.73;;;2.45;;
30515;SDS011;17297;54.022;10.760;2024-03-23T08:48:42;7.68;;;2.88;;
30515;SDS011;17297;54.022;10.760;2024-03-23T08:51:14;10.60;;;3.67;;
30515;SDS011;17297;54.022;10.760;2024-03-23T08:53:41;7.45;;;4.05;;
30515;SDS011;17297;54.022;10.760;2024-03-23T08:56:06;6.82;;;3.40;;
30515;SDS011;17297;54.022;10.760;2024-03-23T08:58:33;5.45;;;2.80;;
30515;SDS011;17297;54.022;10.760;2024-03-23T09:01:02;9.18;;;3.58;;
30515;SDS011;17297;54.022;10.760;2024-03-23T09:03:35;7.82;;;3.00;;
30515;SDS011;17297;54.022;10.760;2024-03-23T09:06:02;6.95;;;2.88;;
30515;SDS011;17297;54.022;10.760;2024-03-23T09:08:31;9.25;;;2.72;;
30515;SDS011;17297;54.022;10.760;2024-03-23T09:10:57;6.88;;;3.22;;
30515;SDS011;17297;54.022;10.760;2024-03-23T09:13:22;10.13;;;3.17;;
30515;SDS011;17297;54.022;10.760;2024-03-23T09:15:48;6.63;;;2.67;;
30515;SDS011;17297;54.022;10.760;2024-03-23T09:18:15;6.85;;;3.42;;
30515;SDS011;17297;54.022;10.760;2024-03-23T09:20:40;12.77;;;3.97;;
30515;SDS011;17297;54.022;10.760;2024-03-23T09:23:06;7.90;;;3.00;;
30515;SDS011;17297;54.022;10.760;2024-03-23T09:25:31;5.53;;;3.03;;
30515;SDS011;17297;54.022;10.760;2024-03-23T09:27:58;12.05;;;4.20;;
30515;SDS011;17297;54.022;10.760;2024-03-23T09:30:23;5.13;;;3.42;;
30515;SDS011;17297;54.022;10.760;2024-03-23T09:32:49;8.30;;;2.88;;
30515;SDS011;17297;54.022;10.760;2024-03-23T09:35:14;9.55;;;4.13;;
30515;SDS011;17297;54.022;10.760;2024-03-23T09:37:39;6.35;;;2.90;;
30515;SDS011;17297;54.022;10.760;2024-03-23T09:40:05;8.68;;;4.15;;
30515;SDS011;17297;54.022;10.760;2024-03-23T09:42:34;8.00;;;2.53;;
30515;SDS011;17297;54.022;10.760;2024-03-23T09:45:00;3.47;;;2.00;;
30515;SDS011;17297;54.022;10.760;2024-03-23T09:47:26;5.72;;;2.15;;
30515;SDS011;17297;54.022;10.760;2024-03-23T09:49:51;5.03;;;2.10;;
30515;SDS011;17297;54.022;10.760;2024-03-23T09:52:17;5.65;;;2.92;;
30515;SDS011;17297;54.022;10.760;2024-03-23T09:54:42;6.03;;;2.42;;
30515;SDS011;17297;54.022;10.760;2024-03-23T09:57:08;4.82;;;2.00;;
30515;SDS011;17297;54.022;10.760;2024-03-23T09:59:33;7.60;;;2.08;;
30515;SDS011;17297;54.022;10.760;2024-03-23T10:02:01;4.80;;;1.60;;
30515;SDS011;17297;54.022;10.760;2024-03-23T10:04:36;3.95;;;1.65;;
30515;SDS011;17297;54.022;10.760;2024-03-23T10:09:42;6.13;;;1.75;;
30515;SDS011;17297;54.022;10.760;2024-03-23T10:12:11;4.10;;;1.98;;
30515;SDS011;17297;54.022;10.760;2024-03-23T10:14:38;3.70;;;1.70;;
30515;SDS011;17297;54.022;10.760;2024-03-23T10:17:14;7.65;;;2.00;;
30515;SDS011;17297;54.022;10.760;2024-03-23T10:19:47;3.78;;;1.33;;
30515;SDS011;17297;54.022;10.760;2024-03-23T10:22:20;2.60;;;1.20;;
30515;SDS011;17297;54.022;10.760;2024-03-23T10:24:47;3.80;;;1.45;;
30515;SDS011;17297;54.022;10.760;2024-03-23T10:27:16;3.05;;;1.35;;
30515;SDS011;17297;54.022;10.760;2024-03-23T10:29:46;3.05;;;1.35;;
30515;SDS011;17297;54.022;10.760;2024-03-23T10:32:15;3.75;;;1.67;;
30515;SDS011;17297;54.022;10.760;2024-03-23T10:34:42;4.00;;;1.38;;
30515;SDS011;17297;54.022;10.760;2024-03-23T10:37:08;5.45;;;1.58;;
30515;SDS011;17297;54.022;10.760;2024-03-23T10:39:34;2.92;;;1.58;;
30515;SDS011;17297;54.022;10.760;2024-03-23T10:42:08;5.90;;;1.90;;
30515;SDS011;17297;54.022;10.760;2024-03-23T10:44:37;6.70;;;1.90;;
30515;SDS011;17297;54.022;10.760;2024-03-23T10:47:03;5.78;;;1.85;;
30515;SDS011;17297;54.022;10.760;2024-03-23T10:49:30;7.07;;;2.67;;
30515;SDS011;17297;54.022;10.760;2024-03-23T10:52:18;4.93;;;1.60;;
30515;SDS011;17297;54.022;10.760;2024-03-23T10:54:43;4.15;;;1.70;;
30515;SDS011;17297;54.022;10.760;2024-03-23T10:57:14;3.33;;;1.90;;
30515;SDS011;17297;54.022;10.760;2024-03-23T10:59:42;6.13;;;2.13;;
30515;SDS011;17297;54.022;10.760;2024-03-23T11:02:18;5.50;;;1.70;;
30515;SDS011;17297;54.022;10.760;2024-03-23T11:04:45;2.95;;;1.42;;
30515;SDS011;17297;54.022;10.760;2024-03-23T11:07:32;3.08;;;1.35;;
30515;SDS011;17297;54.022;10.760;2024-03-23T11:09:59;4.50;;;1.55;;
30515;SDS011;17297;54.022;10.760;2024-03-23T11:14:51;3.38;;;1.80;;
30515;SDS011;17297;54.022;10.760;2024-03-23T11:17:20;4.90;;;1.38;;
30515;SDS011;17297;54.022;10.760;2024-03-23T11:25:21;2.88;;;1.63;;
30515;SDS011;17297;54.022;10.760;2024-03-23T11:27:49;2.38;;;1.33;;
30515;SDS011;17297;54.022;10.760;2024-03-23T11:32:45;3.00;;;1.20;;
30515;SDS011;17297;54.022;10.760;2024-03-23T11:35:27;1.80;;;1.00;;
30515;SDS011;17297;54.022;10.760;2024-03-23T11:40:38;3.45;;;1.00;;
30515;SDS011;17297;54.022;10.760;2024-03-23T11:43:05;2.60;;;1.17;;
30515;SDS011;17297;54.022;10.760;2024-03-23T11:45:35;2.08;;;1.00;;
30515;SDS011;17297;54.022;10.760;2024-03-23T11:48:06;4.07;;;1.20;;
30515;SDS011;17297;54.022;10.760;2024-03-23T11:50:39;3.83;;;1.50;;
30515;SDS011;17297;54.022;10.760;2024-03-23T11:55:47;2.13;;;1.10;;
30515;SDS011;17297;54.022;10.760;2024-03-23T11:58:14;2.50;;;1.17;;
30515;SDS011;17297;54.022;10.760;2024-03-23T12:00:40;3.88;;;1.10;;
30515;SDS011;17297;54.022;10.760;2024-03-23T12:03:07;0.70;;;0.70;;
30515;SDS011;17297;54.022;10.760;2024-03-23T12:05:33;3.83;;;1.15;;
30515;SDS011;17297;54.022;10.760;2024-03-23T12:08:18;1.95;;;0.90;;
30515;SDS011;17297;54.022;10.760;2024-03-23T12:10:50;1.55;;;0.90;;
30515;SDS011;17297;54.022;10.760;2024-03-23T12:13:16;2.80;;;1.10;;
30515;SDS011;17297;54.022;10.760;2024-03-23T12:15:45;2.80;;;0.90;;
30515;SDS011;17297;54.022;10.760;2024-03-23T12:18:12;2.33;;;1.27;;
30515;SDS011;17297;54.022;10.760;2024-03-23T12:20:38;2.88;;;1.30;;
30515;SDS011;17297;54.022;10.760;2024-03-23T12:23:05;3.90;;;1.10;;
30515;SDS011;17297;54.022;10.760;2024-03-23T12:25:31;1.80;;;1.00;;
30515;SDS011;17297;54.022;10.760;2024-03-23T12:27:58;2.42;;;1.02;;
30515;SDS011;17297;54.022;10.760;2024-03-23T12:30:24;3.15;;;1.25;;
30515;SDS011;17297;54.022;10.760;2024-03-23T12:32:50;1.88;;;1.45;;
30515;SDS011;17297;54.022;10.760;2024-03-23T12:35:16;2.80;;;1.13;;
30515;SDS011;17297;54.022;10.760;2024-03-23T12:37:41;3.08;;;1.10;;
30515;SDS011;17297;54.022;10.760;2024-03-23T12:40:07;2.67;;;1.20;;
30515;SDS011;17297;54.022;10.760;2024-03-23T12:42:33;3.83;;;1.38;;
30515;SDS011;17297;54.022;10.760;2024-03-23T12:44:58;2.90;;;1.13;;
30515;SDS011;17297;54.022;10.760;2024-03-23T12:47:23;5.55;;;1.20;;
30515;SDS011;17297;54.022;10.760;2024-03-23T12:49:49;2.55;;;0.93;;
30515;SDS011;17297;54.022;10.760;2024-03-23T12:52:14;3.95;;;1.40;;
30515;SDS011;17297;54.022;10.760;2024-03-23T12:54:40;2.72;;;1.00;;
30515;SDS011;17297;54.022;10.760;2024-03-23T12:57:05;3.45;;;2.00;;
30515;SDS011;17297;54.022;10.760;2024-03-23T12:59:30;2.45;;;1.00;;
30515;SDS011;17297;54.022;10.760;2024-03-23T13:01:56;3.17;;;1.02;;
30515;SDS011;17297;54.022;10.760;2024-03-23T13:04:23;3.20;;;1.20;;
30515;SDS011;17297;54.022;10.760;2024-03-23T13:06:48;3.95;;;0.90;;
30515;SDS011;17297;54.022;10.760;2024-03-23T13:09:14;3.20;;;1.13;;
30515;SDS011;17297;54.022;10.760;2024-03-23T13:11:39;2.15;;;1.10;;
30515;SDS011;17297;54.022;10.760;2024-03-23T13:14:04;3.35;;;1.52;;
30515;SDS011;17297;54.022;10.760;2024-03-23T13:16:31;4.10;;;1.67;;
30515;SDS011;17297;54.022;10.760;2024-03-23T13:18:57;3.15;;;1.50;;
30515;SDS011;17297;54.022;10.760;2024-03-23T13:21:22;1.45;;;0.80;;
30515;SDS011;17297;54.022;10.760;2024-03-23T13:23:49;4.93;;;1.48;;
30515;SDS011;17297;54.022;10.760;2024-03-23T13:26:15;1.60;;;0.90;;
30515;SDS011;17297;54.022;10.760;2024-03-23T13:28:40;2.53;;;1.00;;
30515;SDS011;17297;54.022;10.760;2024-03-23T13:31:06;3.60;;;1.20;;
30515;SDS011;17297;54.022;10.760;2024-03-23T13:33:33;2.75;;;1.10;;
30515;SDS011;17297;54.022;10.760;2024-03-23T13:35:59;3.58;;;1.33;;
30515;SDS011;17297;54.022;10.760;2024-03-23T13:38:24;1.10;;;0.88;;
30515;SDS011;17297;54.022;10.760;2024-03-23T13:40:51;3.20;;;1.10;;
30515;SDS011;17297;54.022;10.760;2024-03-23T13:43:24;5.00;;;1.50;;
30515;SDS011;17297;54.022;10.760;2024-03-23T13:45:54;4.55;;;1.67;;
30515;SDS011;17297;54.022;10.760;2024-03-23T13:48:21;2.67;;;1.17;;
30515;SDS011;17297;54.022;10.760;2024-03-23T13:51:04;4.40;;;1.67;;
30515;SDS011;17297;54.022;10.760;2024-03-23T13:53:30;4.68;;;0.90;;
30515;SDS011;17297;54.022;10.760;2024-03-23T13:55:57;2.20;;;1.27;;
30515;SDS011;17297;54.022;10.760;2024-03-23T13:58:22;2.60;;;0.93;;
30515;SDS011;17297;54.022;10.760;2024-03-23T14:00:50;1.67;;;0.77;;
30515;SDS011;17297;54.022;10.760;2024-03-23T14:03:16;3.22;;;0.80;;
30515;SDS011;17297;54.022;10.760;2024-03-23T14:05:42;2.53;;;1.05;;
30515;SDS011;17297;54.022;10.760;2024-03-23T14:08:07;2.88;;;1.13;;
30515;SDS011;17297;54.022;10.760;2024-03-23T14:10:35;6.63;;;1.58;;
30515;SDS011;17297;54.022;10.760;2024-03-23T14:13:03;6.90;;;2.10;;
30515;SDS011;17297;54.022;10.760;2024-03-23T14:15:29;2.35;;;1.40;;
30515;SDS011;17297;54.022;10.760;2024-03-23T14:17:57;3.45;;;1.30;;
30515;SDS011;17297;54.022;10.760;2024-03-23T14:20:23;3.08;;;1.40;;
30515;SDS011;17297;54.022;10.760;2024-03-23T14:22:49;3.15;;;1.27;;
30515;SDS011;17297;54.022;10.760;2024-03-23T14:25:15;4.03;;;1.50;;
30515;SDS011;17297;54.022;10.760;2024-03-23T14:27:40;1.60;;;1.20;;
30515;SDS011;17297;54.022;10.760;2024-03-23T14:30:06;3.97;;;1.48;;
30515;SDS011;17297;54.022;10.760;2024-03-23T14:32:32;5.88;;;1.98;;
30515;SDS011;17297;54.022;10.760;2024-03-23T14:35:02;2.80;;;1.02;;
30515;SDS011;17297;54.022;10.760;2024-03-23T14:37:32;8.55;;;1.60;;
30515;SDS011;17297;54.022;10.760;2024-03-23T14:39:57;2.97;;;1.60;;
30515;SDS011;17297;54.022;10.760;2024-03-23T14:42:23;3.25;;;1.42;;
30515;SDS011;17297;54.022;10.760;2024-03-23T14:44:49;5.70;;;1.63;;
30515;SDS011;17297;54.022;10.760;2024-03-23T14:47:16;4.90;;;1.58;;
30515;SDS011;17297;54.022;10.760;2024-03-23T14:49:42;6.78;;;1.80;;
30515;SDS011;17297;54.022;10.760;2024-03-23T14:52:12;2.92;;;1.40;;
30515;SDS011;17297;54.022;10.760;2024-03-23T14:54:40;3.35;;;1.42;;
30515;SDS011;17297;54.022;10.760;2024-03-23T14:57:05;4.78;;;1.60;;
30515;SDS011;17297;54.022;10.760;2024-03-23T14:59:34;5.80;;;1.33;;
30515;SDS011;17297;54.022;10.760;2024-03-23T15:01:59;2.85;;;1.45;;
30515;SDS011;17297;54.022;10.760;2024-03-23T15:04:26;3.03;;;1.30;;
30515;SDS011;17297;54.022;10.760;2024-03-23T15:06:51;3.42;;;1.30;;
30515;SDS011;17297;54.022;10.760;2024-03-23T15:09:17;2.33;;;1.25;;
30515;SDS011;17297;54.022;10.760;2024-03-23T15:11:43;4.40;;;1.42;;
30515;SDS011;17297;54.022;10.760;2024-03-23T15:14:08;4.13;;;1.17;;
30515;SDS011;17297;54.022;10.760;2024-03-23T15:16:35;5.85;;;1.88;;
30515;SDS011;17297;54.022;10.760;2024-03-23T15:19:01;4.82;;;1.35;;
30515;SDS011;17297;54.022;10.760;2024-03-23T15:21:26;3.40;;;1.45;;
30515;SDS011;17297;54.022;10.760;2024-03-23T15:23:52;3.00;;;1.73;;
30515;SDS011;17297;54.022;10.760;2024-03-23T15:26:17;0.85;;;0.80;;
30515;SDS011;17297;54.022;10.760;2024-03-23T15:28:42;2.42;;;0.90;;
30515;SDS011;17297;54.022;10.760;2024-03-23T15:31:23;1.77;;;0.85;;
30515;SDS011;17297;54.022;10.760;2024-03-23T15:33:49;0.70;;;0.70;;
30515;SDS011;17297;54.022;10.760;2024-03-23T15:36:15;3.55;;;1.10;;
30515;SDS011;17297;54.022;10.760;2024-03-23T15:38:40;2.20;;;1.20;;
30515;SDS011;17297;54.022;10.760;2024-03-23T15:41:06;5.15;;;2.30;;